Gwyme, Virginia
Current Conditions -  °F | °C
As of 5:35 PM on Monday 20 Oct 2014 (Local Time) from KW75 Reporting Station
Clear Clear  
Wind Chill: 63°   Ceiling: Unl
Heat Index: 63°   Visibility: 10mi
Dew Point: 40°   Wind: 6mph
Humidity: 43%   Direction: 200°SSW
Pressure: 29.98"   Gusts: NA
Location:  37.4982°N, 76.2873°W
Report Text: KW75 202135Z AUTO 20005KT 10SM CLR 17/04 A2998 RMK AO1 T01720044
Loading
Personal Weather Stations






























Interactive Weather Map New forecast layout! Learn more

10-Day Weather Forecast

Advertisements
Track Severe Weather on mobile